Time;durP1;ratioP1;P1;durP2;ratioP2;P2;SDS_P1;SDS_P2;PMS_P1;PMS_P2;Temp;Humidity;BMP_temperature;BMP_pressure;BME280_temperature;BME280_humidity;BME280_pressure;Samples;Min_cycle;Max_cycle;Signal;HPM_P1;HPM_P2
2020/10/20 13:32:11;;;;;;;5.04;2.51;;;;;;;20.26;55.61;100177.41;;;;-41
2020/10/20 13:35:11;;;;;;;4.05;2.39;;;;;;;20.29;55.59;100169.66;;;;-41
2020/10/20 13:44:24;;;;;;;2.57;2.36;;;;;;;20.47;55.47;100155.47;;;;-42
2020/10/20 13:47:24;;;;;;;2.61;2.25;;;;;;;20.52;55.47;100148.80;;;;-41
2020/10/20 13:50:24;;;;;;;3.77;2.33;;;;;;;20.58;55.41;100155.21;;;;-41
2020/10/20 13:53:24;;;;;;;3.51;2.58;;;;;;;20.63;55.42;100158.47;;;;-41
2020/10/20 13:56:24;;;;;;;2.82;2.31;;;;;;;20.71;55.36;100158.11;;;;-41
2020/10/20 13:59:24;;;;;;;3.41;2.41;;;;;;;20.77;55.22;100162.72;;;;-41
2020/10/20 14:02:24;;;;;;;2.83;2.49;;;;;;;20.82;55.08;100162.56;;;;-42
2020/10/20 14:05:24;;;;;;;3.77;2.31;;;;;;;20.87;55.14;100167.74;;;;-42
2020/10/20 14:14:11;;;;;;;2.98;2.19;;;;;;;21.02;55.04;100160.44;;;;-43
2020/10/20 14:17:11;;;;;;;3.51;2.45;;;;;;;21.07;55.20;100156.58;;;;-43
2020/10/20 14:24:03;;;;;;;9.26;5.91;;;;;;;21.18;55.31;100152.26;;;;-41
2020/10/20 14:27:03;;;;;;;3.79;3.49;;;;;;;21.22;55.07;100145.73;;;;-44
2020/10/20 14:30:03;;;;;;;10.16;9.32;;;;;;;21.29;55.14;100144.70;;;;-43
2020/10/20 14:33:03;;;;;;;11.87;10.27;;;;;;;21.32;54.76;100136.14;;;;-43
2020/10/20 14:36:03;;;;;;;3.10;2.34;;;;;;;21.34;54.68;100141.75;;;;-42
2020/10/20 14:44:27;;;;;;;4.63;2.44;;;;;;;21.38;54.10;100139.19;;;;-42
2020/10/20 14:52:44;;;;;;;3.92;2.48;;;;;;;21.38;54.14;100115.06;;;;-44
2020/10/20 14:55:44;;;;;;;3.76;2.40;;;;;;;21.36;54.28;100104.97;;;;-44
2020/10/20 14:58:44;;;;;;;3.10;2.50;;;;;;;21.34;54.36;100105.81;;;;-44
2020/10/20 15:01:44;;;;;;;8.58;2.73;;;;;;;21.31;54.48;100109.98;;;;-43
2020/10/20 15:04:44;;;;;;;5.63;4.10;;;;;;;21.30;54.55;100109.56;;;;-44
2020/10/20 15:07:44;;;;;;;3.50;2.45;;;;;;;21.29;54.54;100110.47;;;;-44
2020/10/20 15:10:44;;;;;;;3.27;2.59;;;;;;;21.27;54.58;100110.25;;;;-44
2020/10/20 15:13:44;;;;;;;5.44;2.38;;;;;;;21.26;54.58;100101.86;;;;-43
2020/10/20 15:16:44;;;;;;;3.33;2.35;;;;;;;21.25;54.57;100099.76;;;;-43
2020/10/20 15:19:44;;;;;;;3.57;2.35;;;;;;;21.33;54.36;100108.56;;;;-45
2020/10/20 15:22:44;;;;;;;3.58;2.59;;;;;;;21.37;53.47;100105.20;;;;-44
2020/10/20 15:25:44;;;;;;;2.65;2.45;;;;;;;21.40;53.56;100114.57;;;;-44
2020/10/20 15:28:44;;;;;;;7.59;2.91;;;;;;;21.42;53.63;100117.77;;;;-42
2020/10/20 15:31:44;;;;;;;6.29;2.94;;;;;;;21.41;53.57;100120.91;;;;-40
2020/10/20 15:34:44;;;;;;;5.48;2.77;;;;;;;21.42;53.88;100121.75;;;;-41
2020/10/20 15:42:23;;;;;;;5.43;2.66;;;;;;;21.46;54.00;100127.75;;;;-44
2020/10/20 15:45:23;;;;;;;4.44;2.72;;;;;;;21.45;54.21;100127.09;;;;-48
2020/10/20 15:48:23;;;;;;;10.05;2.96;;;;;;;21.47;53.91;100125.94;;;;-43
2020/10/20 15:51:23;;;;;;;4.11;2.91;;;;;;;21.38;53.83;100124.37;;;;-43
2020/10/20 15:54:23;;;;;;;6.43;2.92;;;;;;;21.35;54.12;100120.86;;;;-43
2020/10/20 15:57:23;;;;;;;6.93;2.83;;;;;;;21.32;54.17;100119.09;;;;-43
2020/10/20 16:00:23;;;;;;;4.67;2.71;;;;;;;21.30;54.24;100123.91;;;;-44
2020/10/20 16:03:24;;;;;;;7.52;2.91;;;;;;;21.28;54.33;100117.89;;;;-43
2020/10/20 16:06:23;;;;;;;4.88;2.79;;;;;;;21.26;54.33;100118.48;;;;-43
2020/10/20 16:09:23;;;;;;;5.25;2.79;;;;;;;21.24;54.41;100123.78;;;;-43
2020/10/20 16:12:23;;;;;;;6.45;2.98;;;;;;;21.23;54.46;100113.05;;;;-45
2020/10/20 16:15:23;;;;;;;3.99;2.50;;;;;;;21.22;54.48;100113.54;;;;-45
2020/10/20 16:18:23;;;;;;;5.93;2.48;;;;;;;21.20;54.53;100110.84;;;;-45
2020/10/20 16:21:23;;;;;;;4.01;2.54;;;;;;;21.20;54.63;100118.28;;;;-45
2020/10/20 16:24:23;;;;;;;4.15;2.81;;;;;;;21.19;54.71;100119.67;;;;-44
2020/10/20 16:27:23;;;;;;;5.23;2.80;;;;;;;21.23;54.02;100113.19;;;;-44
2020/10/20 16:30:23;;;;;;;6.98;2.84;;;;;;;21.23;53.48;100118.01;;;;-43
2020/10/20 16:33:23;;;;;;;5.63;3.14;;;;;;;21.22;53.58;100117.12;;;;-44
2020/10/20 16:36:23;;;;;;;4.42;2.79;;;;;;;21.22;53.68;100119.08;;;;-43
2020/10/20 16:39:23;;;;;;;4.21;2.91;;;;;;;21.22;53.86;100125.85;;;;-42
2020/10/20 16:42:23;;;;;;;3.26;2.93;;;;;;;21.21;53.77;100133.44;;;;-44
2020/10/20 16:45:23;;;;;;;4.27;2.98;;;;;;;21.21;53.77;100137.19;;;;-42
2020/10/20 16:48:23;;;;;;;4.46;2.73;;;;;;;21.22;54.02;100134.16;;;;-40
2020/10/20 16:51:23;;;;;;;3.80;2.81;;;;;;;21.23;53.92;100132.19;;;;-40
2020/10/20 16:54:23;;;;;;;5.17;2.77;;;;;;;21.24;54.07;100135.95;;;;-40
2020/10/20 16:57:23;;;;;;;4.47;2.86;;;;;;;21.26;53.89;100132.41;;;;-45
2020/10/20 17:00:23;;;;;;;3.15;2.75;;;;;;;21.31;53.98;100137.10;;;;-40
2020/10/20 17:03:23;;;;;;;4.14;2.83;;;;;;;21.34;53.96;100137.59;;;;-43
2020/10/20 17:06:23;;;;;;;4.45;2.99;;;;;;;21.38;53.97;100136.82;;;;-43
2020/10/20 17:09:23;;;;;;;4.07;2.71;;;;;;;21.41;53.98;100139.16;;;;-45
2020/10/20 17:12:23;;;;;;;6.19;2.89;;;;;;;21.44;54.14;100140.81;;;;-42
2020/10/20 17:15:26;;;;;;;4.29;2.80;;;;;;;21.45;54.07;100134.37;;;;-44
2020/10/20 17:18:23;;;;;;;4.67;2.68;;;;;;;21.46;54.15;100135.59;;;;-44
2020/10/20 17:21:23;;;;;;;3.14;2.77;;;;;;;21.48;54.29;100137.59;;;;-41
2020/10/20 17:24:23;;;;;;;5.17;2.85;;;;;;;21.43;54.38;100133.47;;;;-41
2020/10/20 17:27:23;;;;;;;5.13;2.87;;;;;;;21.41;54.48;100131.99;;;;-41
2020/10/20 17:30:23;;;;;;;3.76;2.58;;;;;;;21.38;54.51;100129.81;;;;-42
2020/10/20 17:33:23;;;;;;;3.79;2.70;;;;;;;21.37;54.50;100129.81;;;;-43
2020/10/20 17:36:23;;;;;;;3.19;2.57;;;;;;;21.36;54.59;100127.55;;;;-43
2020/10/20 17:39:23;;;;;;;4.68;2.95;;;;;;;21.35;54.57;100134.97;;;;-43
2020/10/20 17:42:23;;;;;;;3.65;2.71;;;;;;;21.33;54.60;100132.13;;;;-41
2020/10/20 17:45:23;;;;;;;2.92;2.48;;;;;;;21.32;54.59;100137.11;;;;-42
2020/10/20 17:48:23;;;;;;;3.16;2.76;;;;;;;21.31;54.68;100146.02;;;;-42
2020/10/20 17:51:23;;;;;;;4.55;2.91;;;;;;;21.29;54.69;100150.50;;;;-43
2020/10/20 17:54:23;;;;;;;3.34;2.60;;;;;;;21.27;54.74;100149.13;;;;-42
2020/10/20 17:57:23;;;;;;;4.67;2.75;;;;;;;21.27;54.79;100157.94;;;;-43
2020/10/20 18:00:23;;;;;;;2.96;2.48;;;;;;;21.26;54.80;100159.47;;;;-43
2020/10/20 18:03:23;;;;;;;4.34;2.76;;;;;;;21.25;54.80;100152.89;;;;-42
2020/10/20 18:06:23;;;;;;;4.31;2.70;;;;;;;21.24;54.86;100152.65;;;;-43
2020/10/20 18:09:23;;;;;;;3.09;2.77;;;;;;;21.23;54.86;100165.53;;;;-42
2020/10/20 18:12:23;;;;;;;3.28;2.60;;;;;;;21.22;54.86;100164.88;;;;-42
2020/10/20 18:15:23;;;;;;;2.67;2.42;;;;;;;21.20;54.94;100156.25;;;;-42
2020/10/20 18:18:23;;;;;;;2.81;2.48;;;;;;;21.19;54.94;100162.21;;;;-42
2020/10/20 18:21:23;;;;;;;3.10;2.72;;;;;;;21.19;54.95;100158.64;;;;-42
2020/10/20 18:24:23;;;;;;;3.10;2.59;;;;;;;21.18;54.98;100153.90;;;;-42
2020/10/20 18:27:23;;;;;;;3.23;2.58;;;;;;;21.17;54.98;100145.45;;;;-41
2020/10/20 18:30:23;;;;;;;2.79;2.58;;;;;;;21.16;55.03;100137.12;;;;-42
2020/10/20 18:33:23;;;;;;;4.27;2.75;;;;;;;21.16;55.05;100135.25;;;;-41
2020/10/20 18:36:23;;;;;;;3.97;2.75;;;;;;;21.15;55.04;100127.45;;;;-40
2020/10/20 18:39:23;;;;;;;3.03;2.59;;;;;;;21.14;55.08;100120.84;;;;-40
2020/10/20 18:42:23;;;;;;;2.85;2.55;;;;;;;21.13;55.09;100112.38;;;;-40
2020/10/20 18:45:23;;;;;;;5.77;2.60;;;;;;;21.16;55.64;100102.73;;;;-42
2020/10/20 18:48:23;;;;;;;4.37;2.94;;;;;;;21.20;54.57;100087.79;;;;-42
2020/10/20 18:51:23;;;;;;;4.73;3.13;;;;;;;21.21;54.28;100083.90;;;;-41
2020/10/20 18:54:23;;;;;;;3.46;2.93;;;;;;;21.22;54.03;100077.61;;;;-42
2020/10/20 18:57:23;;;;;;;3.99;3.07;;;;;;;21.22;54.16;100070.99;;;;-42
2020/10/20 19:00:23;;;;;;;3.49;3.12;;;;;;;21.24;54.18;100074.89;;;;-43
2020/10/20 20:19:46;;;;;;;5.06;3.99;;;;;;;20.95;54.43;100033.06;;;;-59
2020/10/20 20:22:46;;;;;;;4.54;3.43;;;;;;;20.87;54.68;100029.61;;;;-58
2020/10/20 20:25:46;;;;;;;4.43;3.69;;;;;;;20.83;54.81;100022.69;;;;-56
2020/10/20 20:28:46;;;;;;;5.37;3.49;;;;;;;20.79;54.83;100010.98;;;;-57
2020/10/20 20:31:46;;;;;;;4.12;3.72;;;;;;;20.76;54.93;100004.09;;;;-59
2020/10/20 20:34:47;;;;;;;3.92;3.56;;;;;;;20.74;54.92;100002.91;;;;-57
2020/10/20 20:37:46;;;;;;;4.20;3.80;;;;;;;20.73;54.96;99999.22;;;;-57
2020/10/20 20:40:46;;;;;;;5.08;3.63;;;;;;;20.71;55.04;100001.77;;;;-53
2020/10/20 20:43:48;;;;;;;5.08;3.78;;;;;;;20.70;55.02;99998.84;;;;-62
2020/10/20 20:46:47;;;;;;;4.29;3.68;;;;;;;20.68;55.03;99987.77;;;;-56
2020/10/20 20:49:47;;;;;;;6.50;3.91;;;;;;;20.67;55.14;99980.14;;;;-64
2020/10/20 20:52:46;;;;;;;4.20;3.51;;;;;;;20.65;55.23;99973.97;;;;-64
2020/10/20 20:55:47;;;;;;;4.53;3.53;;;;;;;20.62;55.33;99964.03;;;;-64
2020/10/20 20:58:46;;;;;;;4.53;3.38;;;;;;;20.60;55.34;99958.92;;;;-64
2020/10/20 21:01:47;;;;;;;4.08;3.60;;;;;;;20.57;55.36;99952.56;;;;-64
2020/10/20 21:04:47;;;;;;;3.67;3.37;;;;;;;20.56;55.52;99954.52;;;;-64
2020/10/20 21:07:46;;;;;;;4.17;3.41;;;;;;;20.54;55.49;99945.75;;;;-64
2020/10/20 21:10:46;;;;;;;4.01;3.49;;;;;;;20.52;55.54;99944.48;;;;-66
2020/10/20 21:13:46;;;;;;;4.02;3.62;;;;;;;20.51;55.50;99937.80;;;;-64
2020/10/20 21:16:46;;;;;;;3.82;3.39;;;;;;;20.49;55.64;99927.95;;;;-64
2020/10/20 21:19:46;;;;;;;4.85;3.47;;;;;;;20.47;55.65;99926.98;;;;-66
2020/10/20 21:22:46;;;;;;;3.70;3.29;;;;;;;20.47;55.62;99926.27;;;;-64
2020/10/20 21:25:46;;;;;;;4.50;3.39;;;;;;;20.44;55.71;99908.55;;;;-64
2020/10/20 21:28:46;;;;;;;4.82;3.37;;;;;;;20.43;55.68;99909.69;;;;-64
2020/10/20 21:31:46;;;;;;;3.69;3.36;;;;;;;20.42;55.75;99910.82;;;;-64
2020/10/20 21:34:46;;;;;;;3.69;3.39;;;;;;;20.40;55.75;99909.39;;;;-64
2020/10/20 21:37:46;;;;;;;3.61;3.31;;;;;;;20.38;55.84;99906.47;;;;-64
2020/10/20 21:40:47;;;;;;;3.76;3.46;;;;;;;20.37;55.84;99910.45;;;;-58
2020/10/20 21:43:46;;;;;;;3.89;3.45;;;;;;;20.35;55.91;99908.18;;;;-57
2020/10/20 21:46:46;;;;;;;3.78;3.30;;;;;;;20.34;55.88;99900.47;;;;-58
2020/10/20 21:49:46;;;;;;;3.63;3.33;;;;;;;20.32;55.95;99893.64;;;;-57
2020/10/20 21:52:46;;;;;;;3.47;3.16;;;;;;;20.31;55.98;99883.64;;;;-58
2020/10/20 21:55:46;;;;;;;3.92;3.34;;;;;;;20.30;55.98;99882.59;;;;-58
2020/10/20 21:58:47;;;;;;;3.67;3.30;;;;;;;20.28;56.04;99882.77;;;;-58
2020/10/20 22:01:46;;;;;;;3.36;3.06;;;;;;;20.26;56.01;99881.97;;;;-58
2020/10/20 22:04:46;;;;;;;3.61;3.31;;;;;;;20.24;56.05;99885.39;;;;-58
2020/10/20 22:07:46;;;;;;;3.65;3.35;;;;;;;20.24;56.10;99903.29;;;;-58
2020/10/20 22:10:46;;;;;;;3.49;3.19;;;;;;;20.23;56.08;99903.29;;;;-58
2020/10/20 22:13:46;;;;;;;3.56;3.22;;;;;;;20.22;56.08;99899.73;;;;-58
2020/10/20 22:16:46;;;;;;;3.67;3.21;;;;;;;20.20;56.14;99899.81;;;;-58
2020/10/20 22:19:47;;;;;;;3.43;3.13;;;;;;;20.19;56.19;99885.02;;;;-58
2020/10/20 22:22:46;;;;;;;3.37;3.07;;;;;;;20.19;56.22;99867.76;;;;-58
2020/10/20 22:25:46;;;;;;;3.24;2.91;;;;;;;20.16;56.25;99863.72;;;;-58
2020/10/20 22:28:47;;;;;;;3.51;3.17;;;;;;;20.15;56.24;99858.53;;;;-58
2020/10/20 22:31:46;;;;;;;3.88;3.14;;;;;;;20.14;56.28;99861.36;;;;-58
2020/10/20 22:34:46;;;;;;;3.53;3.23;;;;;;;20.15;56.27;99860.95;;;;-57
2020/10/20 22:37:46;;;;;;;3.40;3.10;;;;;;;20.12;56.27;99862.11;;;;-58
2020/10/20 22:40:46;;;;;;;3.60;3.25;;;;;;;20.12;56.31;99863.17;;;;-58
2020/10/20 22:43:46;;;;;;;3.38;3.08;;;;;;;20.10;56.36;99861.55;;;;-57
2020/10/20 22:46:46;;;;;;;3.47;3.16;;;;;;;20.09;56.43;99868.81;;;;-58
2020/10/20 22:49:46;;;;;;;3.45;3.15;;;;;;;20.07;56.38;99863.05;;;;-58
2020/10/20 22:52:46;;;;;;;3.35;3.03;;;;;;;20.06;56.44;99861.98;;;;-58
2020/10/20 22:55:46;;;;;;;3.31;3.01;;;;;;;20.05;56.41;99854.20;;;;-58
2020/10/20 22:58:46;;;;;;;3.39;3.09;;;;;;;20.03;56.41;99853.55;;;;-57
2020/10/20 23:01:50;;;;;;;3.58;3.02;;;;;;;20.02;56.41;99852.23;;;;-58
2020/10/20 23:04:46;;;;;;;3.23;2.93;;;;;;;20.01;56.50;99859.25;;;;-58
2020/10/20 23:07:46;;;;;;;4.37;3.10;;;;;;;20.01;56.48;99852.35;;;;-58
2020/10/20 23:10:46;;;;;;;3.44;3.14;;;;;;;19.99;56.57;99848.28;;;;-58
2020/10/20 23:13:46;;;;;;;3.38;3.08;;;;;;;19.98;56.54;99840.06;;;;-58
2020/10/20 23:16:46;;;;;;;3.37;3.07;;;;;;;19.98;56.62;99839.25;;;;-58
2020/10/20 23:19:46;;;;;;;3.29;2.99;;;;;;;19.96;56.57;99836.16;;;;-58
2020/10/20 23:22:47;;;;;;;3.18;2.88;;;;;;;19.95;56.59;99829.69;;;;-58
2020/10/20 23:25:46;;;;;;;3.57;3.11;;;;;;;19.94;56.54;99838.38;;;;-58
2020/10/20 23:28:46;;;;;;;4.27;3.14;;;;;;;19.93;56.61;99833.02;;;;-57
2020/10/20 23:31:47;;;;;;;3.31;3.01;;;;;;;19.93;56.62;99827.10;;;;-58
2020/10/20 23:34:46;;;;;;;3.11;2.85;;;;;;;19.91;56.56;99824.58;;;;-58
2020/10/20 23:37:46;;;;;;;3.22;2.92;;;;;;;19.90;56.72;99828.31;;;;-58
2020/10/20 23:40:46;;;;;;;3.10;2.80;;;;;;;19.89;56.69;99826.95;;;;-58
2020/10/20 23:43:46;;;;;;;3.33;3.03;;;;;;;19.88;56.70;99816.40;;;;-58
2020/10/20 23:46:46;;;;;;;2.99;2.75;;;;;;;19.88;56.72;99809.64;;;;-58
2020/10/20 23:49:46;;;;;;;3.08;2.79;;;;;;;19.87;56.70;99803.37;;;;-58
2020/10/20 23:52:46;;;;;;;3.11;2.85;;;;;;;19.86;56.67;99802.91;;;;-58
2020/10/20 23:55:46;;;;;;;3.06;2.77;;;;;;;19.86;56.68;99798.52;;;;-58
2020/10/20 23:58:46;;;;;;;3.29;2.88;;;;;;;19.85;56.78;99792.98;;;;-57
